LEZG/ZAZ METAR and TAF weather

Enter ICAO airport designator
Station Type Date Time Source
LEZG METAR 2020/08/05 17:00 UTC NOAA

LEZG 051700Z 35003KT 300V050 CAVOK 34/02 Q1011


Station Type Date Time Source
LEZG Decoded METAR 2020/08/05 17:00 UTC NOAA

Zaragoza / Aeropuerto, Spain (LEZG) 41-40N 001-01W 258M
Aug 05, 2020 - 01:00 PM EDT / 2020.08.05 1700 UTC
Wind: from the N (350 degrees) at 3 MPH (3 KT) (direction variable):0
Visibility: greater than 7 mile(s):0
Temperature: 93 F (34 C)
Dew Point: 35 F (2 C)
Relative Humidity: 13%
Pressure (altimeter): 29.85 in. Hg (1011 hPa)
ob: LEZG 051700Z 35003KT 300V050 CAVOK 34/02 Q1011
cycle: 17

Station Type Date Time Source
LEZG TAF 2020/08/05 12:27 UTC NOAA

TAF LEZG 051100Z 0512/0612 VRB04KT CAVOK TX35/0515Z TN20/0606Z PROB30
TEMPO 0520/0524 16010KT
BECMG 0606/0608 12010KT

Example: see airport list